sensor_id;sensor_type;location;lat;lon;timestamp;P1;durP1;ratioP1;P2;durP2;ratioP2
8415;SDS011;4245;42.120;24.732;2023-02-01T00:00:13;4.63;;;3.73;;
8415;SDS011;4245;42.120;24.732;2023-02-01T00:02:40;6.93;;;3.40;;
8415;SDS011;4245;42.120;24.732;2023-02-01T00:05:07;5.33;;;3.20;;
8415;SDS011;4245;42.120;24.732;2023-02-01T00:07:35;6.10;;;3.70;;
8415;SDS011;4245;42.120;24.732;2023-02-01T00:10:02;4.60;;;3.40;;
8415;SDS011;4245;42.120;24.732;2023-02-01T00:12:31;4.00;;;3.13;;
8415;SDS011;4245;42.120;24.732;2023-02-01T00:14:58;3.83;;;3.30;;
8415;SDS011;4245;42.120;24.732;2023-02-01T00:17:25;5.13;;;3.60;;
8415;SDS011;4245;42.120;24.732;2023-02-01T00:19:52;5.73;;;3.37;;
8415;SDS011;4245;42.120;24.732;2023-02-01T00:22:18;4.30;;;3.40;;
8415;SDS011;4245;42.120;24.732;2023-02-01T00:24:45;4.73;;;3.07;;
8415;SDS011;4245;42.120;24.732;2023-02-01T00:27:12;4.70;;;3.00;;
8415;SDS011;4245;42.120;24.732;2023-02-01T00:29:44;4.90;;;2.90;;
8415;SDS011;4245;42.120;24.732;2023-02-01T00:32:11;5.17;;;3.40;;
8415;SDS011;4245;42.120;24.732;2023-02-01T00:34:37;4.17;;;2.80;;
8415;SDS011;4245;42.120;24.732;2023-02-01T00:37:04;3.57;;;2.80;;
8415;SDS011;4245;42.120;24.732;2023-02-01T00:39:31;4.07;;;3.07;;
8415;SDS011;4245;42.120;24.732;2023-02-01T00:41:59;3.47;;;2.90;;
8415;SDS011;4245;42.120;24.732;2023-02-01T00:44:27;5.70;;;3.17;;
8415;SDS011;4245;42.120;24.732;2023-02-01T00:46:59;4.53;;;3.23;;
8415;SDS011;4245;42.120;24.732;2023-02-01T00:49:27;3.90;;;2.93;;
8415;SDS011;4245;42.120;24.732;2023-02-01T00:51:54;5.60;;;3.53;;
8415;SDS011;4245;42.120;24.732;2023-02-01T00:54:21;4.73;;;3.27;;
8415;SDS011;4245;42.120;24.732;2023-02-01T00:56:47;4.03;;;2.83;;
8415;SDS011;4245;42.120;24.732;2023-02-01T00:59:14;4.00;;;3.30;;
8415;SDS011;4245;42.120;24.732;2023-02-01T01:01:41;4.40;;;2.87;;
8415;SDS011;4245;42.120;24.732;2023-02-01T01:04:09;4.70;;;3.30;;
8415;SDS011;4245;42.120;24.732;2023-02-01T01:06:36;3.77;;;3.13;;
8415;SDS011;4245;42.120;24.732;2023-02-01T01:09:03;4.40;;;3.10;;
8415;SDS011;4245;42.120;24.732;2023-02-01T01:11:32;6.40;;;3.00;;
8415;SDS011;4245;42.120;24.732;2023-02-01T01:14:00;3.77;;;3.17;;
8415;SDS011;4245;42.120;24.732;2023-02-01T01:16:28;4.37;;;2.90;;
8415;SDS011;4245;42.120;24.732;2023-02-01T01:18:57;4.23;;;3.03;;
8415;SDS011;4245;42.120;24.732;2023-02-01T01:21:26;4.03;;;2.83;;
8415;SDS011;4245;42.120;24.732;2023-02-01T01:23:53;5.93;;;3.50;;
8415;SDS011;4245;42.120;24.732;2023-02-01T01:26:21;4.80;;;3.37;;
8415;SDS011;4245;42.120;24.732;2023-02-01T01:28:49;3.00;;;2.37;;
8415;SDS011;4245;42.120;24.732;2023-02-01T01:31:17;5.53;;;3.60;;
8415;SDS011;4245;42.120;24.732;2023-02-01T01:33:47;6.80;;;3.67;;
8415;SDS011;4245;42.120;24.732;2023-02-01T01:36:15;4.37;;;2.73;;
8415;SDS011;4245;42.120;24.732;2023-02-01T01:38:43;4.73;;;2.70;;
8415;SDS011;4245;42.120;24.732;2023-02-01T01:41:12;4.70;;;2.27;;
8415;SDS011;4245;42.120;24.732;2023-02-01T01:46:30;4.33;;;3.20;;
8415;SDS011;4245;42.120;24.732;2023-02-01T01:49:01;4.90;;;3.13;;
8415;SDS011;4245;42.120;24.732;2023-02-01T01:51:31;3.50;;;2.60;;
8415;SDS011;4245;42.120;24.732;2023-02-01T01:54:03;4.17;;;2.90;;
8415;SDS011;4245;42.120;24.732;2023-02-01T01:56:37;4.03;;;3.13;;
8415;SDS011;4245;42.120;24.732;2023-02-01T01:59:05;3.13;;;2.53;;
8415;SDS011;4245;42.120;24.732;2023-02-01T02:01:32;5.13;;;3.60;;
8415;SDS011;4245;42.120;24.732;2023-02-01T02:03:59;5.40;;;3.37;;
8415;SDS011;4245;42.120;24.732;2023-02-01T02:06:30;4.00;;;2.90;;
8415;SDS011;4245;42.120;24.732;2023-02-01T02:09:08;2.37;;;1.90;;
8415;SDS011;4245;42.120;24.732;2023-02-01T02:11:35;3.17;;;2.87;;
8415;SDS011;4245;42.120;24.732;2023-02-01T02:14:01;4.13;;;3.00;;
8415;SDS011;4245;42.120;24.732;2023-02-01T02:16:43;3.90;;;2.60;;
8415;SDS011;4245;42.120;24.732;2023-02-01T02:22:26;2.63;;;2.23;;
8415;SDS011;4245;42.120;24.732;2023-02-01T02:25:23;4.30;;;2.70;;
8415;SDS011;4245;42.120;24.732;2023-02-01T02:28:24;2.90;;;2.40;;
8415;SDS011;4245;42.120;24.732;2023-02-01T02:31:29;4.67;;;2.80;;
8415;SDS011;4245;42.120;24.732;2023-02-01T02:34:14;3.67;;;2.13;;
8415;SDS011;4245;42.120;24.732;2023-02-01T02:36:51;3.80;;;2.70;;
8415;SDS011;4245;42.120;24.732;2023-02-01T02:39:34;2.83;;;2.27;;
8415;SDS011;4245;42.120;24.732;2023-02-01T02:42:12;1.83;;;1.60;;
8415;SDS011;4245;42.120;24.732;2023-02-01T02:45:08;3.63;;;2.30;;
8415;SDS011;4245;42.120;24.732;2023-02-01T02:48:02;3.60;;;2.60;;
8415;SDS011;4245;42.120;24.732;2023-02-01T02:50:37;4.73;;;2.87;;
8415;SDS011;4245;42.120;24.732;2023-02-01T02:53:30;2.63;;;2.40;;
8415;SDS011;4245;42.120;24.732;2023-02-01T02:56:19;3.63;;;2.50;;
8415;SDS011;4245;42.120;24.732;2023-02-01T02:59:05;5.47;;;2.93;;
8415;SDS011;4245;42.120;24.732;2023-02-01T03:01:52;4.00;;;2.60;;
8415;SDS011;4245;42.120;24.732;2023-02-01T03:04:37;3.20;;;2.80;;
8415;SDS011;4245;42.120;24.732;2023-02-01T03:07:13;4.30;;;3.10;;
8415;SDS011;4245;42.120;24.732;2023-02-01T03:10:03;4.63;;;3.40;;
8415;SDS011;4245;42.120;24.732;2023-02-01T03:12:34;3.87;;;3.20;;
8415;SDS011;4245;42.120;24.732;2023-02-01T03:15:24;3.97;;;3.20;;
8415;SDS011;4245;42.120;24.732;2023-02-01T03:17:56;5.33;;;3.17;;
8415;SDS011;4245;42.120;24.732;2023-02-01T03:20:25;5.00;;;3.30;;
8415;SDS011;4245;42.120;24.732;2023-02-01T03:22:54;4.57;;;2.63;;
8415;SDS011;4245;42.120;24.732;2023-02-01T03:25:25;4.50;;;3.13;;
8415;SDS011;4245;42.120;24.732;2023-02-01T03:27:56;4.77;;;3.23;;
8415;SDS011;4245;42.120;24.732;2023-02-01T03:30:27;4.10;;;3.20;;
8415;SDS011;4245;42.120;24.732;2023-02-01T03:32:58;4.37;;;3.13;;
8415;SDS011;4245;42.120;24.732;2023-02-01T03:35:29;4.90;;;3.73;;
8415;SDS011;4245;42.120;24.732;2023-02-01T03:38:01;5.63;;;3.50;;
8415;SDS011;4245;42.120;24.732;2023-02-01T03:40:36;4.20;;;3.20;;
8415;SDS011;4245;42.120;24.732;2023-02-01T03:43:05;5.97;;;3.27;;
8415;SDS011;4245;42.120;24.732;2023-02-01T03:45:36;6.10;;;3.67;;
8415;SDS011;4245;42.120;24.732;2023-02-01T03:48:07;6.10;;;3.70;;
8415;SDS011;4245;42.120;24.732;2023-02-01T03:50:40;4.43;;;3.57;;
8415;SDS011;4245;42.120;24.732;2023-02-01T03:53:12;10.37;;;3.50;;
8415;SDS011;4245;42.120;24.732;2023-02-01T03:55:44;4.97;;;3.93;;
8415;SDS011;4245;42.120;24.732;2023-02-01T03:58:12;5.33;;;3.73;;
8415;SDS011;4245;42.120;24.732;2023-02-01T04:00:43;5.60;;;4.10;;
8415;SDS011;4245;42.120;24.732;2023-02-01T04:03:11;4.27;;;3.23;;
8415;SDS011;4245;42.120;24.732;2023-02-01T04:05:38;6.10;;;3.90;;
8415;SDS011;4245;42.120;24.732;2023-02-01T04:08:05;5.40;;;3.87;;
8415;SDS011;4245;42.120;24.732;2023-02-01T04:10:32;5.63;;;3.87;;
8415;SDS011;4245;42.120;24.732;2023-02-01T04:13:00;5.13;;;3.20;;
8415;SDS011;4245;42.120;24.732;2023-02-01T04:15:27;6.07;;;3.60;;
8415;SDS011;4245;42.120;24.732;2023-02-01T04:17:53;7.27;;;4.47;;
8415;SDS011;4245;42.120;24.732;2023-02-01T04:20:20;6.27;;;3.77;;
8415;SDS011;4245;42.120;24.732;2023-02-01T04:22:47;6.73;;;4.30;;
8415;SDS011;4245;42.120;24.732;2023-02-01T04:25:14;7.43;;;4.23;;
8415;SDS011;4245;42.120;24.732;2023-02-01T04:27:42;7.53;;;3.50;;
8415;SDS011;4245;42.120;24.732;2023-02-01T04:30:11;3.67;;;2.53;;
8415;SDS011;4245;42.120;24.732;2023-02-01T04:32:38;5.50;;;4.40;;
8415;SDS011;4245;42.120;24.732;2023-02-01T04:35:06;6.80;;;3.90;;
8415;SDS011;4245;42.120;24.732;2023-02-01T04:37:33;6.37;;;4.27;;
8415;SDS011;4245;42.120;24.732;2023-02-01T04:40:00;6.60;;;4.47;;
8415;SDS011;4245;42.120;24.732;2023-02-01T04:42:28;5.87;;;3.90;;
8415;SDS011;4245;42.120;24.732;2023-02-01T04:44:56;7.07;;;3.90;;
8415;SDS011;4245;42.120;24.732;2023-02-01T04:47:24;6.57;;;4.50;;
8415;SDS011;4245;42.120;24.732;2023-02-01T04:49:51;6.93;;;4.30;;
8415;SDS011;4245;42.120;24.732;2023-02-01T04:52:18;6.30;;;4.53;;
8415;SDS011;4245;42.120;24.732;2023-02-01T04:54:44;9.00;;;4.77;;
8415;SDS011;4245;42.120;24.732;2023-02-01T04:57:11;6.33;;;5.17;;
8415;SDS011;4245;42.120;24.732;2023-02-01T04:59:40;7.00;;;4.90;;
8415;SDS011;4245;42.120;24.732;2023-02-01T05:02:06;6.60;;;4.50;;
8415;SDS011;4245;42.120;24.732;2023-02-01T05:04:34;12.83;;;6.17;;
8415;SDS011;4245;42.120;24.732;2023-02-01T05:07:01;9.47;;;4.53;;
8415;SDS011;4245;42.120;24.732;2023-02-01T05:09:28;5.50;;;3.83;;
8415;SDS011;4245;42.120;24.732;2023-02-01T05:11:55;10.20;;;4.77;;
8415;SDS011;4245;42.120;24.732;2023-02-01T05:14:39;7.67;;;4.60;;
8415;SDS011;4245;42.120;24.732;2023-02-01T05:17:06;8.37;;;4.60;;
8415;SDS011;4245;42.120;24.732;2023-02-01T05:19:34;6.27;;;4.30;;
8415;SDS011;4245;42.120;24.732;2023-02-01T05:22:01;7.90;;;4.77;;
8415;SDS011;4245;42.120;24.732;2023-02-01T05:24:28;12.43;;;4.63;;
8415;SDS011;4245;42.120;24.732;2023-02-01T05:26:54;7.87;;;4.50;;
8415;SDS011;4245;42.120;24.732;2023-02-01T05:29:21;8.43;;;4.67;;
8415;SDS011;4245;42.120;24.732;2023-02-01T05:31:49;6.47;;;4.17;;
8415;SDS011;4245;42.120;24.732;2023-02-01T05:34:16;7.30;;;4.43;;
8415;SDS011;4245;42.120;24.732;2023-02-01T05:36:44;12.13;;;5.63;;
8415;SDS011;4245;42.120;24.732;2023-02-01T05:39:11;6.07;;;3.90;;
8415;SDS011;4245;42.120;24.732;2023-02-01T05:41:38;6.90;;;4.87;;
8415;SDS011;4245;42.120;24.732;2023-02-01T05:44:04;6.97;;;4.47;;
8415;SDS011;4245;42.120;24.732;2023-02-01T05:46:32;7.37;;;5.17;;
8415;SDS011;4245;42.120;24.732;2023-02-01T05:48:59;6.23;;;4.30;;
8415;SDS011;4245;42.120;24.732;2023-02-01T05:51:26;10.87;;;6.63;;
8415;SDS011;4245;42.120;24.732;2023-02-01T05:53:54;9.67;;;4.73;;
8415;SDS011;4245;42.120;24.732;2023-02-01T05:56:21;6.83;;;3.83;;
8415;SDS011;4245;42.120;24.732;2023-02-01T05:58:48;5.00;;;3.63;;
8415;SDS011;4245;42.120;24.732;2023-02-01T06:01:15;8.90;;;5.67;;
8415;SDS011;4245;42.120;24.732;2023-02-01T06:03:41;5.43;;;3.33;;
8415;SDS011;4245;42.120;24.732;2023-02-01T06:06:08;8.60;;;4.50;;
8415;SDS011;4245;42.120;24.732;2023-02-01T06:08:35;5.13;;;3.90;;
8415;SDS011;4245;42.120;24.732;2023-02-01T06:11:03;7.03;;;4.50;;
8415;SDS011;4245;42.120;24.732;2023-02-01T06:13:31;5.40;;;2.77;;
8415;SDS011;4245;42.120;24.732;2023-02-01T06:15:58;5.47;;;3.80;;
8415;SDS011;4245;42.120;24.732;2023-02-01T06:18:25;3.47;;;2.63;;
8415;SDS011;4245;42.120;24.732;2023-02-01T06:20:52;4.73;;;3.10;;
8415;SDS011;4245;42.120;24.732;2023-02-01T06:23:20;4.10;;;3.00;;
8415;SDS011;4245;42.120;24.732;2023-02-01T06:25:49;4.83;;;2.90;;
8415;SDS011;4245;42.120;24.732;2023-02-01T06:28:18;5.90;;;3.00;;
8415;SDS011;4245;42.120;24.732;2023-02-01T06:30:44;5.77;;;2.97;;
8415;SDS011;4245;42.120;24.732;2023-02-01T06:33:11;7.70;;;3.57;;
8415;SDS011;4245;42.120;24.732;2023-02-01T06:35:39;5.77;;;3.63;;
8415;SDS011;4245;42.120;24.732;2023-02-01T06:38:07;5.27;;;3.13;;
8415;SDS011;4245;42.120;24.732;2023-02-01T06:40:34;6.60;;;3.23;;
8415;SDS011;4245;42.120;24.732;2023-02-01T06:43:01;10.50;;;3.20;;
8415;SDS011;4245;42.120;24.732;2023-02-01T06:45:29;6.37;;;3.60;;
8415;SDS011;4245;42.120;24.732;2023-02-01T06:47:57;3.73;;;3.00;;
8415;SDS011;4245;42.120;24.732;2023-02-01T06:50:24;5.90;;;2.67;;
8415;SDS011;4245;42.120;24.732;2023-02-01T06:52:51;5.77;;;2.83;;
8415;SDS011;4245;42.120;24.732;2023-02-01T06:55:18;4.63;;;2.60;;
8415;SDS011;4245;42.120;24.732;2023-02-01T06:57:45;4.40;;;2.93;;
8415;SDS011;4245;42.120;24.732;2023-02-01T07:00:12;5.00;;;2.83;;
8415;SDS011;4245;42.120;24.732;2023-02-01T07:02:41;4.90;;;3.00;;
8415;SDS011;4245;42.120;24.732;2023-02-01T07:05:08;4.00;;;3.03;;
8415;SDS011;4245;42.120;24.732;2023-02-01T07:07:35;6.17;;;3.60;;
8415;SDS011;4245;42.120;24.732;2023-02-01T07:10:02;7.10;;;3.60;;
8415;SDS011;4245;42.120;24.732;2023-02-01T07:12:29;6.30;;;3.97;;
8415;SDS011;4245;42.120;24.732;2023-02-01T07:14:55;7.33;;;3.90;;
8415;SDS011;4245;42.120;24.732;2023-02-01T07:17:22;7.73;;;4.00;;
8415;SDS011;4245;42.120;24.732;2023-02-01T07:19:51;7.27;;;4.30;;
8415;SDS011;4245;42.120;24.732;2023-02-01T07:22:18;7.83;;;4.50;;
8415;SDS011;4245;42.120;24.732;2023-02-01T07:24:44;9.93;;;4.73;;
8415;SDS011;4245;42.120;24.732;2023-02-01T07:27:11;16.80;;;5.47;;
8415;SDS011;4245;42.120;24.732;2023-02-01T07:29:38;7.73;;;4.07;;
8415;SDS011;4245;42.120;24.732;2023-02-01T07:32:05;8.57;;;4.80;;
8415;SDS011;4245;42.120;24.732;2023-02-01T07:34:32;8.53;;;4.67;;
8415;SDS011;4245;42.120;24.732;2023-02-01T07:37:00;8.00;;;4.37;;
8415;SDS011;4245;42.120;24.732;2023-02-01T07:39:28;11.17;;;5.73;;
8415;SDS011;4245;42.120;24.732;2023-02-01T07:41:57;7.93;;;4.10;;
8415;SDS011;4245;42.120;24.732;2023-02-01T07:46:59;6.47;;;3.97;;
8415;SDS011;4245;42.120;24.732;2023-02-01T07:49:25;8.03;;;4.67;;
8415;SDS011;4245;42.120;24.732;2023-02-01T07:51:52;16.30;;;6.60;;
8415;SDS011;4245;42.120;24.732;2023-02-01T07:54:20;10.13;;;4.43;;
8415;SDS011;4245;42.120;24.732;2023-02-01T07:56:47;8.20;;;3.80;;
8415;SDS011;4245;42.120;24.732;2023-02-01T07:59:14;9.33;;;4.33;;
8415;SDS011;4245;42.120;24.732;2023-02-01T08:01:41;4.90;;;3.63;;
8415;SDS011;4245;42.120;24.732;2023-02-01T08:04:08;5.00;;;3.30;;
8415;SDS011;4245;42.120;24.732;2023-02-01T08:06:37;12.53;;;5.07;;
8415;SDS011;4245;42.120;24.732;2023-02-01T08:09:04;4.97;;;3.20;;
8415;SDS011;4245;42.120;24.732;2023-02-01T08:11:32;9.47;;;4.07;;
8415;SDS011;4245;42.120;24.732;2023-02-01T08:13:59;5.90;;;3.50;;
8415;SDS011;4245;42.120;24.732;2023-02-01T08:16:26;7.90;;;3.90;;
8415;SDS011;4245;42.120;24.732;2023-02-01T08:18:53;4.67;;;2.60;;
8415;SDS011;4245;42.120;24.732;2023-02-01T08:21:21;5.73;;;2.93;;
8415;SDS011;4245;42.120;24.732;2023-02-01T08:23:49;9.63;;;4.47;;
8415;SDS011;4245;42.120;24.732;2023-02-01T08:26:17;7.63;;;4.10;;
8415;SDS011;4245;42.120;24.732;2023-02-01T08:28:47;8.63;;;5.57;;
8415;SDS011;4245;42.120;24.732;2023-02-01T08:31:17;7.70;;;4.20;;
8415;SDS011;4245;42.120;24.732;2023-02-01T08:33:47;4.77;;;3.20;;
8415;SDS011;4245;42.120;24.732;2023-02-01T08:36:15;5.87;;;3.67;;
8415;SDS011;4245;42.120;24.732;2023-02-01T08:38:42;5.83;;;3.13;;
8415;SDS011;4245;42.120;24.732;2023-02-01T08:41:10;5.20;;;3.00;;
8415;SDS011;4245;42.120;24.732;2023-02-01T08:43:38;6.93;;;3.00;;
8415;SDS011;4245;42.120;24.732;2023-02-01T08:46:07;7.23;;;4.23;;
8415;SDS011;4245;42.120;24.732;2023-02-01T08:48:34;4.90;;;3.67;;
8415;SDS011;4245;42.120;24.732;2023-02-01T08:51:02;6.07;;;3.63;;
8415;SDS011;4245;42.120;24.732;2023-02-01T08:53:30;7.27;;;3.30;;
8415;SDS011;4245;42.120;24.732;2023-02-01T08:55:57;6.40;;;3.60;;
8415;SDS011;4245;42.120;24.732;2023-02-01T08:58:24;10.57;;;4.87;;
8415;SDS011;4245;42.120;24.732;2023-02-01T09:00:51;9.43;;;3.90;;
8415;SDS011;4245;42.120;24.732;2023-02-01T09:03:19;7.60;;;3.57;;
8415;SDS011;4245;42.120;24.732;2023-02-01T09:05:46;7.03;;;3.63;;
8415;SDS011;4245;42.120;24.732;2023-02-01T09:08:13;7.73;;;4.67;;
8415;SDS011;4245;42.120;24.732;2023-02-01T09:10:40;13.60;;;4.50;;
8415;SDS011;4245;42.120;24.732;2023-02-01T09:13:07;7.27;;;3.30;;
8415;SDS011;4245;42.120;24.732;2023-02-01T09:15:34;7.47;;;3.80;;
8415;SDS011;4245;42.120;24.732;2023-02-01T09:18:01;6.83;;;4.33;;
8415;SDS011;4245;42.120;24.732;2023-02-01T09:20:29;10.23;;;4.57;;
8415;SDS011;4245;42.120;24.732;2023-02-01T09:22:56;7.50;;;3.57;;
8415;SDS011;4245;42.120;24.732;2023-02-01T09:25:23;6.03;;;3.80;;
8415;SDS011;4245;42.120;24.732;2023-02-01T09:27:49;9.90;;;4.50;;
8415;SDS011;4245;42.120;24.732;2023-02-01T09:30:16;7.63;;;3.33;;
8415;SDS011;4245;42.120;24.732;2023-02-01T09:32:43;11.93;;;4.60;;
8415;SDS011;4245;42.120;24.732;2023-02-01T09:35:10;6.97;;;3.47;;
8415;SDS011;4245;42.120;24.732;2023-02-01T09:37:38;5.37;;;3.80;;
8415;SDS011;4245;42.120;24.732;2023-02-01T09:40:05;8.50;;;4.50;;
8415;SDS011;4245;42.120;24.732;2023-02-01T09:42:45;7.47;;;4.40;;
8415;SDS011;4245;42.120;24.732;2023-02-01T09:45:24;4.37;;;3.10;;
8415;SDS011;4245;42.120;24.732;2023-02-01T09:47:59;9.53;;;3.00;;
8415;SDS011;4245;42.120;24.732;2023-02-01T09:50:35;10.87;;;2.83;;
8415;SDS011;4245;42.120;24.732;2023-02-01T09:53:06;10.63;;;3.27;;
8415;SDS011;4245;42.120;24.732;2023-02-01T09:55:39;6.07;;;2.67;;
8415;SDS011;4245;42.120;24.732;2023-02-01T09:58:11;6.27;;;2.97;;
8415;SDS011;4245;42.120;24.732;2023-02-01T10:00:44;4.70;;;2.73;;
8415;SDS011;4245;42.120;24.732;2023-02-01T10:03:16;7.17;;;2.90;;
8415;SDS011;4245;42.120;24.732;2023-02-01T10:05:50;3.13;;;1.97;;
8415;SDS011;4245;42.120;24.732;2023-02-01T10:08:53;3.37;;;2.20;;
8415;SDS011;4245;42.120;24.732;2023-02-01T10:11:32;8.73;;;3.07;;
8415;SDS011;4245;42.120;24.732;2023-02-01T10:14:16;5.57;;;2.20;;
8415;SDS011;4245;42.120;24.732;2023-02-01T10:16:59;6.07;;;2.53;;
8415;SDS011;4245;42.120;24.732;2023-02-01T10:19:33;5.87;;;2.53;;
8415;SDS011;4245;42.120;24.732;2023-02-01T10:22:23;3.33;;;2.17;;
8415;SDS011;4245;42.120;24.732;2023-02-01T10:25:05;8.80;;;2.47;;
8415;SDS011;4245;42.120;24.732;2023-02-01T10:27:38;3.97;;;2.77;;
8415;SDS011;4245;42.120;24.732;2023-02-01T10:30:13;6.50;;;3.13;;
8415;SDS011;4245;42.120;24.732;2023-02-01T10:32:43;5.93;;;3.03;;
8415;SDS011;4245;42.120;24.732;2023-02-01T10:35:12;4.27;;;2.40;;
8415;SDS011;4245;42.120;24.732;2023-02-01T10:37:42;3.97;;;2.37;;
8415;SDS011;4245;42.120;24.732;2023-02-01T10:40:19;6.97;;;2.57;;
8415;SDS011;4245;42.120;24.732;2023-02-01T10:42:48;7.03;;;3.27;;
8415;SDS011;4245;42.120;24.732;2023-02-01T10:45:17;7.93;;;2.70;;
8415;SDS011;4245;42.120;24.732;2023-02-01T10:47:47;4.87;;;2.80;;
8415;SDS011;4245;42.120;24.732;2023-02-01T10:50:17;4.50;;;2.93;;
8415;SDS011;4245;42.120;24.732;2023-02-01T10:53:00;7.60;;;3.13;;
8415;SDS011;4245;42.120;24.732;2023-02-01T10:55:34;5.27;;;2.90;;
8415;SDS011;4245;42.120;24.732;2023-02-01T10:58:04;3.77;;;2.87;;
8415;SDS011;4245;42.120;24.732;2023-02-01T11:00:34;6.03;;;2.80;;
8415;SDS011;4245;42.120;24.732;2023-02-01T11:03:30;5.83;;;2.97;;
8415;SDS011;4245;42.120;24.732;2023-02-01T11:06:00;3.33;;;2.60;;
8415;SDS011;4245;42.120;24.732;2023-02-01T11:08:28;2.93;;;2.00;;
8415;SDS011;4245;42.120;24.732;2023-02-01T11:10:58;6.37;;;2.10;;
8415;SDS011;4245;42.120;24.732;2023-02-01T11:13:30;8.27;;;2.07;;
8415;SDS011;4245;42.120;24.732;2023-02-01T11:16:01;2.53;;;1.80;;
8415;SDS011;4245;42.120;24.732;2023-02-01T11:18:30;3.80;;;2.20;;
8415;SDS011;4245;42.120;24.732;2023-02-01T11:20:58;3.10;;;2.00;;
8415;SDS011;4245;42.120;24.732;2023-02-01T11:23:26;3.70;;;2.03;;
8415;SDS011;4245;42.120;24.732;2023-02-01T11:25:55;5.20;;;2.50;;
8415;SDS011;4245;42.120;24.732;2023-02-01T11:28:26;6.20;;;2.60;;
8415;SDS011;4245;42.120;24.732;2023-02-01T11:30:56;5.57;;;2.27;;
8415;SDS011;4245;42.120;24.732;2023-02-01T11:33:26;3.97;;;2.50;;
8415;SDS011;4245;42.120;24.732;2023-02-01T11:35:59;6.57;;;2.67;;
8415;SDS011;4245;42.120;24.732;2023-02-01T11:38:28;7.63;;;2.60;;
8415;SDS011;4245;42.120;24.732;2023-02-01T11:41:11;4.87;;;2.20;;
8415;SDS011;4245;42.120;24.732;2023-02-01T11:43:50;4.70;;;2.50;;
8415;SDS011;4245;42.120;24.732;2023-02-01T11:46:19;3.77;;;2.20;;
8415;SDS011;4245;42.120;24.732;2023-02-01T11:48:50;4.00;;;2.47;;
8415;SDS011;4245;42.120;24.732;2023-02-01T11:51:21;4.20;;;2.50;;
8415;SDS011;4245;42.120;24.732;2023-02-01T11:54:09;4.77;;;2.30;;
8415;SDS011;4245;42.120;24.732;2023-02-01T11:56:47;2.63;;;2.00;;
8415;SDS011;4245;42.120;24.732;2023-02-01T11:59:31;5.90;;;2.17;;
8415;SDS011;4245;42.120;24.732;2023-02-01T12:02:19;5.77;;;2.10;;
8415;SDS011;4245;42.120;24.732;2023-02-01T12:05:17;7.50;;;2.33;;
8415;SDS011;4245;42.120;24.732;2023-02-01T12:08:01;5.13;;;2.43;;
8415;SDS011;4245;42.120;24.732;2023-02-01T12:10:41;3.50;;;1.90;;
8415;SDS011;4245;42.120;24.732;2023-02-01T12:13:22;2.80;;;2.10;;
8415;SDS011;4245;42.120;24.732;2023-02-01T12:16:07;10.40;;;2.20;;
8415;SDS011;4245;42.120;24.732;2023-02-01T12:24:49;4.53;;;2.23;;
8415;SDS011;4245;42.120;24.732;2023-02-01T12:27:48;4.47;;;3.00;;
8415;SDS011;4245;42.120;24.732;2023-02-01T12:30:48;2.60;;;1.77;;
8415;SDS011;4245;42.120;24.732;2023-02-01T12:33:31;3.87;;;1.90;;
8415;SDS011;4245;42.120;24.732;2023-02-01T12:36:12;3.10;;;1.87;;
8415;SDS011;4245;42.120;24.732;2023-02-01T12:38:47;4.43;;;1.90;;
8415;SDS011;4245;42.120;24.732;2023-02-01T12:41:23;2.47;;;1.70;;
8415;SDS011;4245;42.120;24.732;2023-02-01T12:44:04;5.17;;;2.70;;
8415;SDS011;4245;42.120;24.732;2023-02-01T12:46:40;5.80;;;2.30;;
8415;SDS011;4245;42.120;24.732;2023-02-01T12:49:11;6.30;;;1.97;;
8415;SDS011;4245;42.120;24.732;2023-02-01T12:51:44;5.43;;;2.27;;
8415;SDS011;4245;42.120;24.732;2023-02-01T12:54:15;2.97;;;2.00;;
8415;SDS011;4245;42.120;24.732;2023-02-01T12:56:47;3.00;;;2.00;;
8415;SDS011;4245;42.120;24.732;2023-02-01T12:59:21;3.97;;;2.27;;
8415;SDS011;4245;42.120;24.732;2023-02-01T13:01:54;3.17;;;1.90;;
8415;SDS011;4245;42.120;24.732;2023-02-01T13:04:29;2.17;;;1.70;;
8415;SDS011;4245;42.120;24.732;2023-02-01T13:07:01;4.47;;;2.30;;
8415;SDS011;4245;42.120;24.732;2023-02-01T13:09:36;3.77;;;1.97;;
8415;SDS011;4245;42.120;24.732;2023-02-01T13:12:10;6.07;;;2.53;;
8415;SDS011;4245;42.120;24.732;2023-02-01T13:14:41;3.67;;;1.90;;
8415;SDS011;4245;42.120;24.732;2023-02-01T13:17:14;4.63;;;2.17;;
8415;SDS011;4245;42.120;24.732;2023-02-01T13:19:44;7.57;;;2.57;;
8415;SDS011;4245;42.120;24.732;2023-02-01T13:22:16;5.83;;;2.00;;
8415;SDS011;4245;42.120;24.732;2023-02-01T13:24:47;3.57;;;1.80;;
8415;SDS011;4245;42.120;24.732;2023-02-01T13:27:17;4.23;;;2.30;;
8415;SDS011;4245;42.120;24.732;2023-02-01T13:29:46;3.10;;;2.20;;
8415;SDS011;4245;42.120;24.732;2023-02-01T13:32:33;3.67;;;2.27;;
8415;SDS011;4245;42.120;24.732;2023-02-01T13:38:29;3.40;;;2.27;;
8415;SDS011;4245;42.120;24.732;2023-02-01T13:41:19;3.87;;;2.00;;
8415;SDS011;4245;42.120;24.732;2023-02-01T13:43:53;5.37;;;2.47;;
8415;SDS011;4245;42.120;24.732;2023-02-01T13:46:24;4.47;;;2.30;;
8415;SDS011;4245;42.120;24.732;2023-02-01T13:48:54;4.37;;;2.07;;
8415;SDS011;4245;42.120;24.732;2023-02-01T13:51:35;2.10;;;1.70;;
8415;SDS011;4245;42.120;24.732;2023-02-01T13:54:04;4.83;;;2.23;;
8415;SDS011;4245;42.120;24.732;2023-02-01T13:56:39;3.97;;;2.33;;
8415;SDS011;4245;42.120;24.732;2023-02-01T14:08:21;9.73;;;2.60;;
8415;SDS011;4245;42.120;24.732;2023-02-01T14:10:50;7.03;;;3.07;;
8415;SDS011;4245;42.120;24.732;2023-02-01T14:13:25;2.90;;;1.83;;
8415;SDS011;4245;42.120;24.732;2023-02-01T14:16:16;5.50;;;3.60;;
8415;SDS011;4245;42.120;24.732;2023-02-01T14:18:54;7.80;;;4.30;;
8415;SDS011;4245;42.120;24.732;2023-02-01T14:21:25;4.87;;;2.30;;
8415;SDS011;4245;42.120;24.732;2023-02-01T14:23:58;5.00;;;2.40;;
8415;SDS011;4245;42.120;24.732;2023-02-01T14:26:28;5.77;;;3.30;;
8415;SDS011;4245;42.120;24.732;2023-02-01T14:32:03;6.03;;;3.30;;
8415;SDS011;4245;42.120;24.732;2023-02-01T14:34:39;5.17;;;2.57;;
8415;SDS011;4245;42.120;24.732;2023-02-01T14:37:25;3.60;;;2.20;;
8415;SDS011;4245;42.120;24.732;2023-02-01T14:39:56;3.70;;;2.23;;
8415;SDS011;4245;42.120;24.732;2023-02-01T14:42:28;4.30;;;2.57;;
8415;SDS011;4245;42.120;24.732;2023-02-01T14:51:14;3.70;;;2.70;;
8415;SDS011;4245;42.120;24.732;2023-02-01T14:53:43;6.37;;;2.90;;
8415;SDS011;4245;42.120;24.732;2023-02-01T14:56:14;4.83;;;3.03;;
8415;SDS011;4245;42.120;24.732;2023-02-01T14:58:48;5.50;;;2.83;;
8415;SDS011;4245;42.120;24.732;2023-02-01T15:01:20;5.80;;;3.67;;
8415;SDS011;4245;42.120;24.732;2023-02-01T15:03:53;4.33;;;2.80;;
8415;SDS011;4245;42.120;24.732;2023-02-01T15:06:29;5.13;;;2.83;;
8415;SDS011;4245;42.120;24.732;2023-02-01T15:09:03;4.33;;;3.23;;
8415;SDS011;4245;42.120;24.732;2023-02-01T15:14:29;6.43;;;3.63;;
8415;SDS011;4245;42.120;24.732;2023-02-01T15:16:57;8.10;;;3.57;;
8415;SDS011;4245;42.120;24.732;2023-02-01T15:19:26;9.77;;;3.93;;
8415;SDS011;4245;42.120;24.732;2023-02-01T15:21:55;9.63;;;3.57;;
8415;SDS011;4245;42.120;24.732;2023-02-01T15:24:26;6.80;;;4.43;;
8415;SDS011;4245;42.120;24.732;2023-02-01T15:26:54;8.30;;;4.20;;
8415;SDS011;4245;42.120;24.732;2023-02-01T15:29:24;6.97;;;3.90;;
8415;SDS011;4245;42.120;24.732;2023-02-01T15:31:53;6.00;;;4.00;;
8415;SDS011;4245;42.120;24.732;2023-02-01T15:34:20;4.87;;;3.13;;
8415;SDS011;4245;42.120;24.732;2023-02-01T15:36:47;8.00;;;3.67;;
8415;SDS011;4245;42.120;24.732;2023-02-01T15:39:15;8.63;;;4.23;;
8415;SDS011;4245;42.120;24.732;2023-02-01T15:41:48;8.27;;;4.50;;
8415;SDS011;4245;42.120;24.732;2023-02-01T15:44:18;7.03;;;4.80;;
8415;SDS011;4245;42.120;24.732;2023-02-01T15:46:49;9.67;;;4.90;;
8415;SDS011;4245;42.120;24.732;2023-02-01T15:49:18;8.93;;;5.10;;
8415;SDS011;4245;42.120;24.732;2023-02-01T15:51:50;15.77;;;8.17;;
8415;SDS011;4245;42.120;24.732;2023-02-01T15:54:18;11.07;;;5.70;;
8415;SDS011;4245;42.120;24.732;2023-02-01T15:56:50;11.60;;;5.53;;
8415;SDS011;4245;42.120;24.732;2023-02-01T15:59:20;10.33;;;5.80;;
8415;SDS011;4245;42.120;24.732;2023-02-01T16:01:50;10.87;;;5.93;;
8415;SDS011;4245;42.120;24.732;2023-02-01T16:04:18;17.43;;;7.77;;